Wetterdaten: Woche 13.09.10 - 19.09.10 (KW37)
Datum Zeit Temp. A. Feuchte A. Luftdruck Regen Wind Richtung Taupunkt Windchill Windben
13.09.2010 00:00 13,8 C 87 % 1017,7 hPa 0,0 l/m 0,0 km/h N 11,7 C 13,8 C 0,0 km/h
13.09.2010 01:00 13,4 C 87 % 1017,5 hPa 0,0 l/m 0,0 km/h N 11,3 C 13,4 C 0,0 km/h
13.09.2010 02:00 12,9 C 87 % 1017,4 hPa 0,0 l/m 0,0 km/h N 10,8 C 12,9 C 0,0 km/h
13.09.2010 03:00 12,3 C 88 % 1017,5 hPa 0,0 l/m 0,0 km/h N 10,2 C 12,3 C 0,0 km/h
13.09.2010 04:00 11,8 C 88 % 1017,7 hPa 0,0 l/m 0,0 km/h N 9,9 C 11,8 C 0,0 km/h
13.09.2010 05:00 11,5 C 88 % 1017,8 hPa 0,0 l/m 0,0 km/h N 9,6 C 11,5 C 0,0 km/h
13.09.2010 06:00 11,4 C 88 % 1018,3 hPa 0,0 l/m 0,0 km/h N 9,5 C 11,4 C 0,8 km/h
13.09.2010 07:00 12,7 C 87 % 1018,8 hPa 0,0 l/m 0,5 km/h W-SW 10,6 C 12,7 C 5,6 km/h
13.09.2010 08:00 14,0 C 87 % 1019,3 hPa 0,0 l/m 0,5 km/h N 11,8 C 14,0 C 4,4 km/h
13.09.2010 09:00 15,3 C 87 % 1019,8 hPa 0,0 l/m 0,7 km/h W-SW 13,1 C 15,3 C 5,2 km/h
13.09.2010 10:00 16,7 C 87 % 1019,7 hPa 0,0 l/m 2,3 km/h NO 14,4 C 16,7 C 9,7 km/h
13.09.2010 11:00 19,1 C 73 % 1019,4 hPa 0,0 l/m 5,4 km/h NW 14,1 C 19,1 C 21,3 km/h
13.09.2010 12:00 20,4 C 68 % 1019,7 hPa 0,0 l/m 6,3 km/h NW 14,3 C 20,3 C 21,3 km/h
13.09.2010 13:00 20,7 C 66 % 1019,8 hPa 0,0 l/m 6,4 km/h N-NW 14,0 C 20,5 C 20,9 km/h
13.09.2010 14:00 20,3 C 65 % 1020,0 hPa 0,0 l/m 7,2 km/h SW 13,4 C 19,8 C 26,1 km/h
13.09.2010 15:00 18,8 C 68 % 1020,0 hPa 0,0 l/m 6,3 km/h SW 12,8 C 18,8 C 23,3 km/h
13.09.2010 16:00 18,4 C 69 % 1020,1 hPa 0,0 l/m 5,7 km/h NW 12,6 C 18,4 C 23,3 km/h
13.09.2010 17:00 18,3 C 69 % 1020,3 hPa 0,0 l/m 6,5 km/h S-SO 12,4 C 18,0 C 25,7 km/h
13.09.2010 18:00 17,9 C 69 % 1020,7 hPa 0,0 l/m 6,3 km/h SW 12,1 C 17,8 C 25,4 km/h
13.09.2010 19:00 17,3 C 70 % 1021,1 hPa 0,0 l/m 6,8 km/h NW 11,9 C 17,1 C 22,5 km/h
13.09.2010 20:00 17,0 C 73 % 1021,5 hPa 0,0 l/m 5,7 km/h N-NO 12,0 C 17,0 C 24,1 km/h
13.09.2010 21:00 16,8 C 74 % 1022,0 hPa 0,0 l/m 5,0 km/h NW 12,1 C 16,8 C 18,9 km/h
13.09.2010 22:00 16,4 C 76 % 1022,7 hPa 0,0 l/m 4,5 km/h NW 12,1 C 16,4 C 18,1 km/h
13.09.2010 23:00 16,0 C 79 % 1023,3 hPa 0,0 l/m 4,7 km/h NW 12,2 C 16,0 C 18,9 km/h
14.09.2010 00:00 15,3 C 82 % 1023,4 hPa 0,0 l/m 4,1 km/h N-NW 12,3 C 15,3 C 14,9 km/h
14.09.2010 01:00 14,9 C 84 % 1023,5 hPa 0,0 l/m 3,3 km/h S 12,1 C 14,9 C 11,7 km/h
14.09.2010 02:00 14,8 C 83 % 1023,3 hPa 0,0 l/m 2,7 km/h S-SO 11,9 C 14,8 C 16,9 km/h
14.09.2010 03:00 14,7 C 82 % 1023,5 hPa 0,0 l/m 2,2 km/h NW 11,6 C 14,7 C 10,1 km/h
14.09.2010 04:00 14,6 C 82 % 1023,6 hPa 0,0 l/m 1,4 km/h N-NO 11,5 C 14,6 C 6,4 km/h
14.09.2010 05:00 14,4 C 82 % 1023,8 hPa 0,0 l/m 1,7 km/h NW 11,3 C 14,4 C 7,6 km/h
14.09.2010 06:00 13,9 C 83 % 1024,0 hPa 0,0 l/m 1,2 km/h N-NW 11,0 C 13,9 C 5,6 km/h
14.09.2010 07:00 13,7 C 84 % 1024,1 hPa 0,0 l/m 1,9 km/h NW 10,9 C 13,7 C 8,1 km/h
14.09.2010 08:00 13,9 C 82 % 1024,2 hPa 0,0 l/m 0,7 km/h N-NW 10,9 C 13,9 C 4,4 km/h
14.09.2010 09:00 14,7 C 81 % 1024,1 hPa 0,0 l/m 3,4 km/h S 11,4 C 14,7 C 11,3 km/h
14.09.2010 10:00 15,9 C 75 % 1024,0 hPa 0,0 l/m 3,0 km/h S-SW 11,5 C 15,9 C 13,7 km/h
14.09.2010 11:00 17,8 C 68 % 1023,9 hPa 0,0 l/m 4,8 km/h NW 11,8 C 17,8 C 14,5 km/h
14.09.2010 12:00 19,9 C 60 % 1023,5 hPa 0,0 l/m 4,2 km/h S-SO 11,9 C 19,9 C 17,3 km/h
14.09.2010 13:00 20,5 C 56 % 1022,9 hPa 0,0 l/m 6,2 km/h N-NO 11,3 C 20,4 C 16,5 km/h
14.09.2010 14:00 20,8 C 53 % 1022,4 hPa 0,0 l/m 5,5 km/h S-SW 10,8 C 20,8 C 21,7 km/h
14.09.2010 15:00 20,6 C 54 % 1021,4 hPa 0,0 l/m 4,6 km/h NW 10,8 C 20,6 C 15,3 km/h
14.09.2010 16:00 20,2 C 55 % 1020,7 hPa 0,0 l/m 5,8 km/h NW 10,8 C 20,2 C 20,5 km/h
14.09.2010 17:00 19,8 C 57 % 1020,4 hPa 0,0 l/m 4,0 km/h S-SW 11,1 C 19,8 C 16,5 km/h
14.09.2010 18:00 18,6 C 61 % 1020,2 hPa 0,0 l/m 2,2 km/h S-SO 11,0 C 18,6 C 10,5 km/h
14.09.2010 19:00 18,1 C 63 % 1020,0 hPa 0,0 l/m 0,7 km/h N 11,0 C 18,1 C 5,2 km/h
14.09.2010 20:00 17,7 C 67 % 1020,3 hPa 0,0 l/m 0,0 km/h N 11,4 C 17,7 C 0,4 km/h
14.09.2010 21:00 16,9 C 71 % 1020,2 hPa 0,0 l/m 0,0 km/h N 11,6 C 16,9 C 0,8 km/h
14.09.2010 22:00 16,3 C 70 % 1019,8 hPa 0,0 l/m 0,1 km/h N 10,7 C 16,3 C 1,2 km/h
14.09.2010 23:00 16,4 C 67 % 1019,3 hPa 0,0 l/m 0,3 km/h N 10,1 C 16,4 C 4,4 km/h
15.09.2010 00:00 16,4 C 72 % 1018,5 hPa 0,0 l/m 0,1 km/h N 11,4 C 16,4 C 2,8 km/h
15.09.2010 01:00 15,9 C 75 % 1017,7 hPa 0,0 l/m 0,0 km/h N 11,5 C 15,9 C 1,2 km/h
15.09.2010 02:00 15,4 C 76 % 1017,0 hPa 0,0 l/m 0,1 km/h N 11,1 C 15,4 C 2,0 km/h
15.09.2010 03:00 14,9 C 78 % 1016,8 hPa 0,0 l/m 0,0 km/h N 11,0 C 14,9 C 0,4 km/h
15.09.2010 04:00 14,8 C 78 % 1016,5 hPa 0,0 l/m 0,0 km/h N 10,9 C 14,8 C 0,8 km/h
15.09.2010 05:00 14,7 C 79 % 1016,0 hPa 0,0 l/m 0,0 km/h N 11,0 C 14,7 C 0,0 km/h
15.09.2010 06:00 14,6 C 82 % 1015,8 hPa 0,0 l/m 0,1 km/h N 11,5 C 14,6 C 1,2 km/h
15.09.2010 07:00 14,4 C 84 % 1015,6 hPa 0,0 l/m 0,1 km/h N 11,6 C 14,4 C 2,0 km/h
15.09.2010 08:00 14,7 C 85 % 1015,6 hPa 0,0 l/m 0,1 km/h N 12,3 C 14,7 C 0,8 km/h
15.09.2010 09:00 16,0 C 85 % 1015,5 hPa 0,0 l/m 0,0 km/h N 13,5 C 16,0 C 0,4 km/h
15.09.2010 10:00 18,0 C 77 % 1015,0 hPa 0,3 l/m 0,4 km/h S-SW 13,9 C 18,0 C 3,6 km/h
15.09.2010 11:00 19,8 C 68 % 1014,4 hPa 0,0 l/m 0,8 km/h S 13,6 C 19,8 C 5,6 km/h
15.09.2010 12:00 20,5 C 67 % 1014,2 hPa 0,0 l/m 1,8 km/h S 14,0 C 20,5 C 8,5 km/h
15.09.2010 13:00 21,6 C 65 % 1014,0 hPa 0,0 l/m 0,5 km/h W-SW 14,7 C 21,6 C 5,2 km/h
15.09.2010 14:00 23,6 C 59 % 1013,4 hPa 0,0 l/m 2,1 km/h S-SO 15,0 C 23,6 C 9,6 km/h
15.09.2010 15:00 25,1 C 42 % 1012,8 hPa 0,0 l/m 1,2 km/h SO 11,0 C 25,1 C 7,2 km/h
15.09.2010 16:00 23,4 C 44 % 1012,5 hPa 0,0 l/m 0,5 km/h N 10,3 C 23,4 C 4,4 km/h
15.09.2010 17:00 21,6 C 52 % 1012,1 hPa 0,0 l/m 0,1 km/h N 11,4 C 21,6 C 0,8 km/h
15.09.2010 18:00 20,2 C 57 % 1011,8 hPa 0,0 l/m 0,3 km/h N 11,4 C 20,2 C 3,6 km/h
15.09.2010 19:00 19,2 C 63 % 1012,1 hPa 0,0 l/m 0,0 km/h N 11,9 C 19,2 C 1,2 km/h
15.09.2010 20:00 18,3 C 71 % 1012,5 hPa 0,3 l/m 0,4 km/h S 12,8 C 18,3 C 4,0 km/h
15.09.2010 21:00 18,2 C 75 % 1012,0 hPa 0,0 l/m 1,7 km/h S-SO 13,6 C 18,2 C 7,6 km/h
15.09.2010 22:00 18,1 C 76 % 1011,9 hPa 0,0 l/m 1,8 km/h S-SO 13,8 C 18,1 C 8,1 km/h
15.09.2010 23:00 17,8 C 79 % 1011,7 hPa 0,0 l/m 0,7 km/h SW 14,1 C 17,8 C 7,3 km/h
16.09.2010 00:00 16,8 C 83 % 1011,4 hPa 0,0 l/m 0,5 km/h S-SW 13,9 C 16,8 C 4,8 km/h
16.09.2010 01:00 16,0 C 84 % 1011,5 hPa 0,0 l/m 0,1 km/h N 13,3 C 16,0 C 1,2 km/h
16.09.2010 02:00 15,4 C 85 % 1011,4 hPa 0,0 l/m 0,0 km/h N 12,9 C 15,4 C 1,6 km/h
16.09.2010 03:00 15,1 C 86 % 1011,1 hPa 0,0 l/m 0,0 km/h N 12,7 C 15,1 C 0,8 km/h
16.09.2010 04:00 14,9 C 87 % 1011,3 hPa 0,5 l/m 0,1 km/h N 12,7 C 14,9 C 2,0 km/h
16.09.2010 05:00 14,6 C 87 % 1011,0 hPa 0,0 l/m 0,0 km/h N 12,4 C 14,6 C 0,8 km/h
16.09.2010 06:00 14,1 C 87 % 1011,2 hPa 0,0 l/m 0,0 km/h N 12,0 C 14,1 C 1,2 km/h
16.09.2010 07:00 14,0 C 87 % 1011,6 hPa 0,0 l/m 0,0 km/h N 11,9 C 14,0 C 0,4 km/h
16.09.2010 08:00 14,0 C 88 % 1012,2 hPa 1,0 l/m 0,4 km/h N 12,0 C 14,0 C 4,8 km/h
16.09.2010 09:00 14,4 C 88 % 1012,8 hPa 0,0 l/m 0,3 km/h N 12,4 C 14,4 C 3,6 km/h
16.09.2010 10:00 14,6 C 85 % 1013,3 hPa 0,0 l/m 0,8 km/h S-SW 12,1 C 14,6 C 7,6 km/h
16.09.2010 11:00 15,1 C 79 % 1013,6 hPa 0,0 l/m 3,2 km/h S 11,4 C 15,1 C 11,3 km/h
16.09.2010 12:00 16,9 C 67 % 1013,4 hPa 0,0 l/m 3,0 km/h N-NO 10,7 C 16,9 C 18,1 km/h
16.09.2010 13:00 18,8 C 60 % 1013,3 hPa 0,0 l/m 3,6 km/h SW 10,7 C 18,8 C 11,3 km/h
16.09.2010 14:00 20,8 C 54 % 1012,7 hPa 0,0 l/m 3,5 km/h S-SW 11,2 C 20,8 C 16,5 km/h
16.09.2010 15:00 20,8 C 53 % 1012,4 hPa 0,0 l/m 4,8 km/h SW 10,8 C 20,8 C 15,3 km/h
16.09.2010 16:00 21,0 C 62 % 1012,2 hPa 0,0 l/m 3,9 km/h S-SO 13,3 C 21,0 C 13,3 km/h
16.09.2010 17:00 20,1 C 69 % 1012,1 hPa 0,0 l/m 3,6 km/h S 14,1 C 20,1 C 12,1 km/h
16.09.2010 18:00 18,4 C 75 % 1012,2 hPa 0,0 l/m 3,3 km/h S-SO 13,8 C 18,4 C 10,5 km/h
16.09.2010 19:00 17,5 C 78 % 1012,2 hPa 0,0 l/m 1,9 km/h S 13,5 C 17,5 C 7,6 km/h
16.09.2010 20:00 17,0 C 80 % 1012,5 hPa 0,0 l/m 2,2 km/h SW 13,6 C 17,0 C 10,5 km/h
16.09.2010 21:00 16,6 C 81 % 1012,6 hPa 0,0 l/m 1,8 km/h S-SO 13,3 C 16,6 C 7,6 km/h
16.09.2010 22:00 16,4 C 82 % 1012,7 hPa 0,0 l/m 0,9 km/h S-SW 13,2 C 16,4 C 6,0 km/h
16.09.2010 23:00 16,3 C 82 % 1012,4 hPa 0,0 l/m 0,6 km/h N 13,2 C 16,3 C 5,2 km/h
17.09.2010 00:00 16,1 C 82 % 1012,1 hPa 0,0 l/m 0,4 km/h S 13,0 C 16,1 C 5,6 km/h
17.09.2010 01:00 16,0 C 83 % 1011,9 hPa 0,8 l/m 0,2 km/h N 13,1 C 16,0 C 3,6 km/h
17.09.2010 02:00 15,6 C 85 % 1011,7 hPa 0,8 l/m 0,0 km/h N 13,1 C 15,6 C 0,4 km/h
17.09.2010 03:00 15,4 C 86 % 1011,3 hPa 0,5 l/m 0,0 km/h N 13,1 C 15,4 C 0,0 km/h
17.09.2010 04:00 15,2 C 87 % 1010,9 hPa 0,0 l/m 0,0 km/h N 13,0 C 15,2 C 1,2 km/h
17.09.2010 05:00 14,9 C 87 % 1010,6 hPa 0,0 l/m 0,0 km/h N 12,8 C 14,9 C 0,0 km/h
17.09.2010 06:00 14,8 C 87 % 1010,7 hPa 0,0 l/m 0,0 km/h N 12,7 C 14,8 C 0,0 km/h
17.09.2010 07:00 14,7 C 88 % 1011,1 hPa 0,0 l/m 0,0 km/h N 12,6 C 14,7 C 0,0 km/h
17.09.2010 08:00 14,8 C 88 % 1011,7 hPa 0,5 l/m 0,0 km/h N 12,8 C 14,8 C 0,0 km/h
17.09.2010 09:00 14,9 C 87 % 1012,1 hPa 0,5 l/m 0,0 km/h N 12,8 C 14,9 C 0,4 km/h
17.09.2010 10:00 15,0 C 87 % 1011,9 hPa 0,5 l/m 0,0 km/h N 12,9 C 15,0 C 0,4 km/h
17.09.2010 11:00 15,4 C 88 % 1011,7 hPa 0,0 l/m 0,4 km/h N 13,4 C 15,4 C 4,4 km/h
17.09.2010 12:00 15,6 C 87 % 1011,9 hPa 0,0 l/m 0,7 km/h O-NO 13,3 C 15,6 C 6,0 km/h
17.09.2010 13:00 16,1 C 76 % 1012,1 hPa 0,0 l/m 2,6 km/h NW 11,9 C 16,1 C 9,3 km/h
17.09.2010 14:00 16,2 C 67 % 1012,3 hPa 0,0 l/m 4,0 km/h NW 10,0 C 16,2 C 13,3 km/h
17.09.2010 15:00 16,8 C 61 % 1012,5 hPa 0,0 l/m 2,8 km/h W-SW 9,2 C 16,8 C 10,1 km/h
17.09.2010 16:00 16,8 C 65 % 1012,6 hPa 0,0 l/m 1,0 km/h S 10,1 C 16,8 C 6,4 km/h
17.09.2010 17:00 17,0 C 65 % 1012,7 hPa 0,0 l/m 0,6 km/h N 10,4 C 17,0 C 6,4 km/h
17.09.2010 18:00 16,4 C 66 % 1013,0 hPa 0,0 l/m 1,4 km/h W-SW 9,9 C 16,4 C 8,8 km/h
17.09.2010 19:00 15,5 C 71 % 1013,5 hPa 0,3 l/m 0,6 km/h SW 10,3 C 15,5 C 6,0 km/h
17.09.2010 20:00 14,9 C 73 % 1014,4 hPa 0,0 l/m 1,4 km/h SW 10,0 C 14,9 C 7,6 km/h
17.09.2010 21:00 14,8 C 71 % 1014,8 hPa 0,0 l/m 0,8 km/h W 9,6 C 14,8 C 8,5 km/h
17.09.2010 22:00 15,1 C 69 % 1014,9 hPa 0,0 l/m 1,0 km/h N 9,4 C 15,1 C 7,3 km/h
17.09.2010 23:00 14,9 C 71 % 1015,1 hPa 0,0 l/m 0,6 km/h N 9,6 C 14,9 C 6,4 km/h
18.09.2010 00:00 15,0 C 70 % 1015,1 hPa 0,0 l/m 1,2 km/h NW 9,5 C 15,0 C 8,4 km/h
18.09.2010 01:00 14,9 C 69 % 1015,1 hPa 0,0 l/m 0,8 km/h N-NW 9,3 C 14,9 C 4,4 km/h
18.09.2010 02:00 14,8 C 70 % 1015,3 hPa 0,0 l/m 0,7 km/h N 9,4 C 14,8 C 3,2 km/h
18.09.2010 03:00 14,5 C 72 % 1015,6 hPa 0,0 l/m 0,3 km/h N 9,4 C 14,5 C 3,2 km/h
18.09.2010 04:00 14,0 C 71 % 1015,9 hPa 0,0 l/m 0,5 km/h N 8,9 C 14,0 C 6,8 km/h
18.09.2010 05:00 13,6 C 71 % 1015,9 hPa 0,0 l/m 0,4 km/h N 8,5 C 13,6 C 4,8 km/h
18.09.2010 06:00 13,4 C 70 % 1016,3 hPa 0,0 l/m 0,1 km/h N 8,0 C 13,4 C 2,4 km/h
18.09.2010 07:00 13,0 C 72 % 1016,6 hPa 0,0 l/m 0,5 km/h N 8,1 C 13,0 C 4,4 km/h
18.09.2010 08:00 12,8 C 75 % 1017,1 hPa 0,0 l/m 0,2 km/h N 8,4 C 12,8 C 2,8 km/h
18.09.2010 09:00 13,3 C 75 % 1017,2 hPa 0,0 l/m 0,3 km/h N-NW 9,0 C 13,3 C 2,4 km/h
18.09.2010 10:00 15,0 C 66 % 1017,4 hPa 0,0 l/m 2,2 km/h NW 8,7 C 15,0 C 8,5 km/h
18.09.2010 11:00 16,7 C 62 % 1017,2 hPa 0,0 l/m 2,0 km/h S 9,4 C 16,7 C 7,2 km/h
18.09.2010 12:00 19,0 C 53 % 1016,8 hPa 0,0 l/m 1,2 km/h N-NO 9,3 C 19,0 C 6,0 km/h
18.09.2010 13:00 19,2 C 52 % 1016,4 hPa 0,0 l/m 0,5 km/h S 8,9 C 19,2 C 3,6 km/h
18.09.2010 14:00 19,0 C 50 % 1015,7 hPa 0,0 l/m 0,5 km/h N 8,3 C 19,0 C 2,8 km/h
18.09.2010 15:00 18,7 C 54 % 1015,4 hPa 0,0 l/m 1,2 km/h S-SW 9,2 C 18,7 C 8,4 km/h
18.09.2010 16:00 18,8 C 56 % 1015,1 hPa 0,0 l/m 1,1 km/h SO 9,9 C 18,8 C 9,3 km/h
18.09.2010 17:00 18,4 C 59 % 1014,8 hPa 0,0 l/m 2,4 km/h O 10,4 C 18,4 C 11,3 km/h
18.09.2010 18:00 17,0 C 65 % 1014,9 hPa 0,0 l/m 0,8 km/h N 10,3 C 17,0 C 11,3 km/h
18.09.2010 19:00 16,3 C 69 % 1014,8 hPa 0,0 l/m 0,0 km/h N 10,5 C 16,3 C 1,6 km/h
18.09.2010 20:00 15,8 C 73 % 1015,0 hPa 0,0 l/m 0,0 km/h N 10,9 C 15,8 C 3,2 km/h
18.09.2010 21:00 15,1 C 74 % 1015,0 hPa 0,0 l/m 0,0 km/h N 10,5 C 15,1 C 5,6 km/h
18.09.2010 22:00 14,6 C 75 % 1015,2 hPa 0,0 l/m 0,0 km/h N 10,2 C 14,6 C 4,0 km/h
18.09.2010 23:00 14,0 C 77 % 1015,5 hPa 0,0 l/m 0,0 km/h N 10,0 C 14,0 C 1,6 km/h
19.09.2010 00:00 13,5 C 79 % 1015,3 hPa 0,0 l/m 0,0 km/h N 9,9 C 13,5 C 0,8 km/h
19.09.2010 01:00 13,3 C 82 % 1014,9 hPa 0,3 l/m 0,0 km/h N 10,2 C 13,3 C 0,0 km/h
19.09.2010 02:00 13,0 C 84 % 1014,8 hPa 0,0 l/m 0,0 km/h N 10,4 C 13,0 C 2,4 km/h
19.09.2010 03:00 12,8 C 86 % 1014,8 hPa 0,0 l/m 0,0 km/h N 10,4 C 12,8 C 0,8 km/h
19.09.2010 04:00 12,6 C 86 % 1014,8 hPa 0,0 l/m 0,0 km/h N 10,4 C 12,6 C 1,6 km/h
19.09.2010 05:00 12,3 C 85 % 1015,0 hPa 0,0 l/m 0,0 km/h N 9,8 C 12,3 C 0,8 km/h
19.09.2010 06:00 11,9 C 80 % 1015,3 hPa 0,0 l/m 0,0 km/h N 8,5 C 11,9 C 4,0 km/h
19.09.2010 07:00 11,9 C 76 % 1015,7 hPa 0,0 l/m 0,8 km/h N-NW 7,8 C 11,9 C 10,5 km/h
19.09.2010 08:00 11,9 C 74 % 1016,7 hPa 0,0 l/m 3,2 km/h NW 7,4 C 11,9 C 11,3 km/h
19.09.2010 09:00 11,9 C 73 % 1017,3 hPa 0,0 l/m 3,2 km/h NW 7,2 C 11,9 C 10,5 km/h
19.09.2010 10:00 12,7 C 69 % 1017,3 hPa 0,0 l/m 4,0 km/h NW 7,2 C 12,7 C 14,5 km/h
19.09.2010 11:00 14,5 C 63 % 1017,3 hPa 0,0 l/m 4,0 km/h NW 7,5 C 14,5 C 13,7 km/h
19.09.2010 12:00 16,4 C 56 % 1017,2 hPa 0,0 l/m 4,8 km/h NW 7,6 C 16,4 C 12,1 km/h
19.09.2010 13:00 17,5 C 53 % 1016,9 hPa 0,0 l/m 4,8 km/h NW 7,6 C 17,5 C 14,5 km/h
19.09.2010 14:00 16,9 C 51 % 1016,8 hPa 0,0 l/m 4,0 km/h NW 6,7 C 16,9 C 15,3 km/h
19.09.2010 15:00 16,5 C 53 % 1016,8 hPa 0,0 l/m 3,2 km/h NW 6,8 C 16,5 C 12,1 km/h
19.09.2010 16:00 17,3 C 50 % 1016,8 hPa 0,0 l/m 4,0 km/h NW 6,6 C 17,3 C 11,3 km/h
19.09.2010 17:00 15,8 C 56 % 1017,3 hPa 0,0 l/m 0,8 km/h N 7,0 C 15,8 C 7,2 km/h
19.09.2010 18:00 15,3 C 61 % 1017,7 hPa 0,0 l/m 0,0 km/h N 7,7 C 15,3 C 2,4 km/h
19.09.2010 19:00 14,2 C 63 % 1018,2 hPa 0,0 l/m 0,0 km/h N 7,1 C 14,2 C 1,6 km/h
19.09.2010 20:00 12,4 C 68 % 1018,9 hPa 0,0 l/m 0,0 km/h N 6,6 C 12,4 C 0,8 km/h
19.09.2010 21:00 10,9 C 71 % 1019,5 hPa 0,0 l/m 0,0 km/h N 5,7 C 10,9 C 1,6 km/h
19.09.2010 22:00 10,4 C 73 % 1019,8 hPa 0,0 l/m 0,0 km/h N 5,7 C 10,4 C 0,8 km/h
19.09.2010 23:00 9,4 C 75 % 1019,9 hPa 0,0 l/m 0,0 km/h N 5,1 C 9,4 C 2,4 km/h
Min-Datum _ 19.09.10 15.09.10 17.09.10 - 13.09.10 - 19.09.10 19.09.10 13.09.10
_ Min-Zeit 23:30 15:31 05:30 - 00:00 - 23:00 23:30 00:00
Minimum _ 9,2 C 36 % 1010,4 hPa - 0,0 km/h - 5,1 C 9,2 C 0,0 km/h
Max-Datum _ 15.09.10 13.09.10 14.09.10 16.09.10 13.09.10 - 15.09.10 15.09.10 13.09.10
_ Max-Zeit 15:16 03:15 07:00 08:00 13:30 - 15:02 15:02 14:00
Maximum _ 25,5 C 88 % 1024,2 hPa 1,0 l/m 8,5 km/h
N-NW
- 16,2 C 25,4 C 33,8 km/h
SW
Durchschnitt _ 16,1 C 73 % 1016,2 hPa #6,2 l/m 1,6 km/h NW 11,0 C 16,1 C 7,3 km/h